Messwerte Atqasuk

Temperatur

Temperatur
°C
1620853200 13.00 13.00 -7
1620856800 14.00 14.00 -7
1620860400 15.00 15.00 -7
1620864000 16.00 16.00 -7
1620867600 17.00 17.00 -8
1620871200 18.00 18.00 -8
1620874800 19.00 19.00 -8
1620878400 20.00 20.00 -8
1620882000 21.00 21.00 -9
1620885600 22.00 22.00 -9
1620889200 23.00 23.00 -9
1620892800 0.00 0.00 -9
1620896400 1.00 1.00
1620900000 2.00 2.00 -10
1620903600 3.00 3.00 -10
1620907200 4.00 4.00 -9
1620910800 5.00 5.00 -9
1620914400 6.00 6.00 -9
1620918000 7.00 7.00 -9
1620921600 8.00 8.00 -9
1620925200 9.00 9.00 -9
1620928800 10.00 10.00
1620932400 11.00 11.00 -8
1620936000 12.00 12.00 -7

Aktuellste Messwerte

Wettercharakter
Wetter: bedeckt
Temperatur
-7 °C
Feuchtigkeit
85 %
Wind
25 km/hWindrichtung: Ost
Luftdruck
1024 hPa
Messzeit: 13. Mai 2021, 13.00Datenquelle: METAR

Weitere Messstationen in der Nähe

Messstation Temperatur Entfernung
Barrow -9 °C 93 km
Point Lay -2 °C 219 km
Deadhorse -5 °C 243 km
Kuparuk -6 °C 293 km
Deadhorse -6 °C 337 km
Anaktuvuk Pass - 343 km
Ambler 12 °C 375 km

Wind

Windrichtung Böen Mittelwind
° km/h km/h
1620853200 13.00 12.00 - 13.00 90° 40
1620856800 14.00 13.00 - 14.00 100° 35
1620860400 15.00 14.00 - 15.00 100° 40
1620864000 16.00 15.00 - 16.00 100° 40
1620867600 17.00 16.00 - 17.00 100° 40
1620871200 18.00 17.00 - 18.00 100° 40
1620874800 19.00 18.00 - 19.00 100° 40
1620878400 20.00 19.00 - 20.00 100° 40
1620882000 21.00 20.00 - 21.00 100° 35
1620885600 22.00 21.00 - 22.00 100° 40
1620889200 23.00 22.00 - 23.00 100° 30
1620892800 0.00 23.00 - 0.00 100° 30
1620896400 1.00 0.00 - 1.00
1620900000 2.00 1.00 - 2.00 90° 25
1620903600 3.00 2.00 - 3.00 110° 30
1620907200 4.00 3.00 - 4.00 110° 30
1620910800 5.00 4.00 - 5.00 110° 30
1620914400 6.00 5.00 - 6.00 110° 30
1620918000 7.00 6.00 - 7.00 100° 30
1620921600 8.00 7.00 - 8.00 100° 30
1620925200 9.00 8.00 - 9.00 110° 30
1620928800 10.00 9.00 - 10.00
1620932400 11.00 10.00 - 11.00 100° 25
1620936000 12.00 11.00 - 12.00 110° 25

Ihre Wetterstation

Fehlt Ihre Wetterstation auf unserem Portal?

Schreiben Sie an network@meteonews.ch

Klima

Wann ist es am wärmsten? Wann regnet es am wenigsten? Unsere Klimadaten geben Auskunft.